createdAt,value
2019-01-20T00:00:29.817Z,95057.50
2019-01-20T00:01:33.410Z,95054.61
2019-01-20T00:02:36.924Z,95059.91
2019-01-20T00:03:40.370Z,95062.05
2019-01-20T00:04:43.830Z,95059.03
2019-01-20T00:05:47.411Z,95057.30
2019-01-20T00:06:50.846Z,95062.14
2019-01-20T00:07:54.440Z,95058.97
2019-01-20T00:08:57.891Z,95062.55
2019-01-20T00:10:01.327Z,95057.69
2019-01-20T00:11:05.563Z,95059.12
2019-01-20T00:12:09.068Z,95055.25
2019-01-20T00:13:12.591Z,95062.90
2019-01-20T00:14:16.223Z,95057.33
2019-01-20T00:15:20.766Z,95056.25
2019-01-20T00:16:24.210Z,95058.19
2019-01-20T00:17:27.714Z,95056.39
2019-01-20T00:18:31.263Z,95055.30
2019-01-20T00:19:34.707Z,95055.16
2019-01-20T00:20:38.281Z,95051.93
2019-01-20T00:21:41.790Z,95055.89
2019-01-20T00:22:45.248Z,95049.97
2019-01-20T00:23:48.733Z,95048.47
2019-01-20T00:24:52.341Z,95053.71
2019-01-20T00:25:55.859Z,95052.63
2019-01-20T00:26:59.296Z,95058.98
2019-01-20T00:28:02.834Z,95056.41
2019-01-20T00:29:07.007Z,95057.09
2019-01-20T00:30:13.436Z,95054.52
2019-01-20T00:31:16.908Z,95056.06
2019-01-20T00:32:20.344Z,95059.16
2019-01-20T00:33:23.884Z,95057.75
2019-01-20T00:34:27.327Z,95059.12
2019-01-20T00:35:30.907Z,95062.14
2019-01-20T00:36:34.346Z,95055.94
2019-01-20T00:37:37.787Z,95060.09
2019-01-20T00:38:41.246Z,95057.34
2019-01-20T00:39:44.689Z,95055.61
2019-01-20T00:40:48.281Z,95056.70
2019-01-20T00:41:51.727Z,95056.70
2019-01-20T00:42:55.183Z,95055.78
2019-01-20T00:43:58.616Z,95055.58
2019-01-20T00:45:02.964Z,95055.78
2019-01-20T00:46:06.808Z,95053.84
2019-01-20T00:47:10.334Z,95059.09
2019-01-20T00:48:13.917Z,95059.30
2019-01-20T00:49:17.368Z,95056.19
2019-01-20T00:50:20.802Z,95051.03
2019-01-20T00:51:24.315Z,95054.37
2019-01-20T00:52:27.790Z,95053.58
2019-01-20T00:53:31.325Z,95054.78
2019-01-20T00:54:34.763Z,95047.13
2019-01-20T00:55:38.282Z,95055.88
2019-01-20T00:56:41.720Z,95056.07
2019-01-20T00:57:45.522Z,95060.18
2019-01-20T00:58:48.923Z,95050.07
2019-01-20T00:59:52.360Z,95047.89
2019-01-20T01:00:55.794Z,95053.98
2019-01-20T01:01:59.308Z,95052.21
2019-01-20T01:03:02.802Z,95051.40
2019-01-20T01:04:06.384Z,95052.38
2019-01-20T01:05:10.035Z,95050.64
2019-01-20T01:06:13.512Z,95055.16
2019-01-20T01:07:17.031Z,95056.44
2019-01-20T01:08:20.496Z,95053.38
2019-01-20T01:09:24.010Z,95055.27
2019-01-20T01:10:27.522Z,95057.41
2019-01-20T01:11:31.874Z,95056.11
2019-01-20T01:12:35.546Z,95053.09
2019-01-20T01:13:39.140Z,95044.92
2019-01-20T01:14:43.051Z,95056.95
2019-01-20T01:15:46.492Z,95056.47
2019-01-20T01:16:50.103Z,95054.81
2019-01-20T01:17:53.572Z,95059.84
2019-01-20T01:18:57.043Z,95057.66
2019-01-20T01:20:00.558Z,95058.39
2019-01-20T01:21:04.073Z,95061.97
2019-01-20T01:22:07.670Z,95058.62
2019-01-20T01:23:11.271Z,95062.62
2019-01-20T01:24:14.707Z,95059.07
2019-01-20T01:25:18.484Z,95061.97
2019-01-20T01:26:21.989Z,95056.36
2019-01-20T01:27:25.455Z,95056.81
2019-01-20T01:28:28.986Z,95056.81
2019-01-20T01:29:32.490Z,95060.48
2019-01-20T01:30:35.939Z,95062.02
2019-01-20T01:31:39.444Z,95057.70
2019-01-20T01:32:42.928Z,95059.39
2019-01-20T01:33:46.372Z,95056.81
2019-01-20T01:34:49.808Z,95058.10
2019-01-20T01:35:53.307Z,95061.41
2019-01-20T01:36:56.740Z,95061.28
2019-01-20T01:38:00.203Z,95065.38
2019-01-20T01:39:05.230Z,95064.17
2019-01-20T01:40:11.613Z,95061.52
2019-01-20T01:41:15.208Z,95061.86
2019-01-20T01:42:18.729Z,95060.67
2019-01-20T01:43:22.263Z,95059.39
2019-01-20T01:44:25.774Z,95064.38
2019-01-20T01:45:29.284Z,95063.86
2019-01-20T01:46:32.729Z,95062.56
2019-01-20T01:47:36.162Z,95065.14
2019-01-20T01:48:39.622Z,95059.39
2019-01-20T01:49:43.142Z,95065.83
2019-01-20T01:50:46.586Z,95061.64
2019-01-20T01:51:50.045Z,95064.22
2019-01-20T01:52:53.571Z,95060.97
2019-01-20T01:53:57.019Z,95057.78
2019-01-20T01:55:00.466Z,95052.39
2019-01-20T01:56:04.055Z,95054.23
2019-01-20T01:57:07.548Z,95054.89
2019-01-20T01:58:11.017Z,95056.63
2019-01-20T01:59:14.527Z,95060.56
2019-01-20T02:00:20.478Z,95057.99
2019-01-20T02:01:23.945Z,95059.07
2019-01-20T02:02:27.393Z,95049.53
2019-01-20T02:03:30.955Z,95055.53
2019-01-20T02:04:34.467Z,95052.11
2019-01-20T02:05:37.991Z,95053.77
2019-01-20T02:06:41.500Z,95048.45
2019-01-20T02:07:45.047Z,95055.29
2019-01-20T02:08:48.498Z,95048.92
2019-01-20T02:09:51.964Z,95053.87
2019-01-20T02:10:55.397Z,95051.30
2019-01-20T02:11:59.050Z,95050.53
2019-01-20T02:13:02.616Z,95056.36
2019-01-20T02:14:06.321Z,95050.66
2019-01-20T02:15:12.013Z,95056.89
2019-01-20T02:16:15.535Z,95049.53
2019-01-20T02:17:19.053Z,95053.31
2019-01-20T02:18:22.493Z,95053.00
2019-01-20T02:19:26.033Z,95052.03
2019-01-20T02:20:29.565Z,95051.38
2019-01-20T02:21:33.149Z,95051.97
2019-01-20T02:22:36.762Z,95046.06
2019-01-20T02:23:40.220Z,95048.06
2019-01-20T02:24:43.678Z,95038.81
2019-01-20T02:25:47.141Z,95045.54
2019-01-20T02:26:50.598Z,95043.12
2019-01-20T02:27:54.773Z,95040.02
2019-01-20T02:28:58.223Z,95042.52
2019-01-20T02:30:01.758Z,95039.73
2019-01-20T02:31:05.398Z,95043.36
2019-01-20T02:32:08.906Z,95040.78
2019-01-20T02:33:12.414Z,95039.13
2019-01-20T02:34:15.891Z,95045.64
2019-01-20T02:35:19.531Z,95041.57
2019-01-20T02:36:22.972Z,95044.14
2019-01-20T02:37:26.484Z,95045.04
2019-01-20T02:38:29.925Z,95042.02
2019-01-20T02:39:33.372Z,95045.43
2019-01-20T02:40:36.837Z,95039.76
2019-01-20T02:41:40.278Z,95045.36
2019-01-20T02:42:43.706Z,95047.82
2019-01-20T02:43:47.222Z,95047.22
2019-01-20T02:44:50.656Z,95046.20
2019-01-20T02:45:54.178Z,95044.43
2019-01-20T02:46:57.632Z,95046.27
2019-01-20T02:48:01.162Z,95043.30
2019-01-20T02:49:04.735Z,95044.44
2019-01-20T02:50:11.136Z,95039.94
2019-01-20T02:51:14.576Z,95048.11
2019-01-20T02:52:18.027Z,95042.75
2019-01-20T02:53:21.492Z,95042.84
2019-01-20T02:54:25.078Z,95039.73
2019-01-20T02:55:28.678Z,95040.78
2019-01-20T02:56:32.121Z,95036.47
2019-01-20T02:57:35.650Z,95034.14
2019-01-20T02:58:39.086Z,95040.34
2019-01-20T02:59:42.604Z,95035.19
2019-01-20T03:00:46.184Z,95036.16
2019-01-20T03:01:49.762Z,95032.37
2019-01-20T03:02:53.288Z,95033.06
2019-01-20T03:03:56.793Z,95036.77
2019-01-20T03:05:00.263Z,95030.93
2019-01-20T03:06:03.894Z,95034.82
2019-01-20T03:07:07.330Z,95029.94
2019-01-20T03:08:10.768Z,95034.08
2019-01-20T03:09:14.204Z,95037.34
2019-01-20T03:10:17.806Z,95037.81
2019-01-20T03:11:21.398Z,95030.23
2019-01-20T03:12:24.908Z,95038.59
2019-01-20T03:13:28.346Z,95036.23
2019-01-20T03:14:31.858Z,95039.41
2019-01-20T03:15:35.458Z,95039.48
2019-01-20T03:16:38.967Z,95038.05
2019-01-20T03:17:42.478Z,95040.41
2019-01-20T03:18:45.988Z,95043.12
2019-01-20T03:19:49.497Z,95036.30
2019-01-20T03:20:52.945Z,95035.09
2019-01-20T03:21:56.478Z,95030.78
2019-01-20T03:22:59.914Z,95035.54
2019-01-20T03:24:03.352Z,95009.18
2019-01-20T03:25:09.850Z,95029.48
2019-01-20T03:26:13.315Z,95038.41
2019-01-20T03:27:16.777Z,95033.65
2019-01-20T03:28:20.217Z,95034.94
2019-01-20T03:29:23.652Z,95033.20
2019-01-20T03:30:27.112Z,95031.60
2019-01-20T03:31:30.633Z,95031.53
2019-01-20T03:32:34.078Z,95028.50
2019-01-20T03:33:37.581Z,95029.34
2019-01-20T03:34:41.031Z,95023.36
2019-01-20T03:35:44.559Z,95023.22
2019-01-20T03:36:48.003Z,95024.95
2019-01-20T03:37:51.520Z,95025.54
2019-01-20T03:38:54.977Z,95030.48
2019-01-20T03:39:58.423Z,95028.74
2019-01-20T03:41:01.944Z,95029.34
2019-01-20T03:42:11.931Z,95027.37
2019-01-20T03:43:10.848Z,95027.16
2019-01-20T03:44:14.357Z,95029.49
2019-01-20T03:45:21.160Z,95030.13
2019-01-20T03:46:24.630Z,95028.00
2019-01-20T03:47:28.141Z,95028.97
2019-01-20T03:48:31.643Z,95026.92
2019-01-20T03:49:35.155Z,95026.27
2019-01-20T03:50:38.611Z,95027.00
2019-01-20T03:51:42.049Z,95028.30
2019-01-20T03:52:45.740Z,95030.87
2019-01-20T03:53:49.251Z,95025.03
2019-01-20T03:54:52.762Z,95023.44
2019-01-20T03:55:56.364Z,95021.94
2019-01-20T03:56:59.973Z,95028.13
2019-01-20T03:58:03.478Z,95024.34
2019-01-20T03:59:06.981Z,95023.14
2019-01-20T04:00:13.535Z,95022.61
2019-01-20T04:01:16.988Z,95019.83
2019-01-20T04:02:21.922Z,95023.59
2019-01-20T04:03:25.364Z,95017.80
2019-01-20T04:04:28.805Z,95019.08
2019-01-20T04:05:32.337Z,95017.41
2019-01-20T04:06:35.850Z,95017.64
2019-01-20T04:07:39.292Z,95023.39
2019-01-20T04:08:42.735Z,95024.44
2019-01-20T04:09:46.169Z,95027.70
2019-01-20T04:10:49.627Z,95023.91
2019-01-20T04:11:53.065Z,95023.59
2019-01-20T04:12:56.579Z,95028.08
2019-01-20T04:14:00.009Z,95030.86
2019-01-20T04:15:03.585Z,95025.50
2019-01-20T04:16:07.030Z,95030.27
2019-01-20T04:17:18.499Z,95030.03
2019-01-20T04:18:21.940Z,95025.97
2019-01-20T04:19:25.383Z,95024.36
2019-01-20T04:20:28.851Z,95021.66
2019-01-20T04:21:32.392Z,95029.14
2019-01-20T04:22:35.892Z,95029.97
2019-01-20T04:23:39.337Z,95028.69
2019-01-20T04:24:42.812Z,95021.80
2019-01-20T04:25:47.711Z,95025.06
2019-01-20T04:26:51.154Z,95030.50
2019-01-20T04:27:54.661Z,95022.49
2019-01-20T04:28:58.101Z,95028.61
2019-01-20T04:30:01.534Z,95028.54
2019-01-20T04:31:05.075Z,95021.03
2019-01-20T04:32:08.512Z,95025.37
2019-01-20T04:33:12.018Z,95020.43
2019-01-20T04:34:15.468Z,95022.55
2019-01-20T04:35:19.046Z,95021.20
2019-01-20T04:36:22.510Z,95024.83
2019-01-20T04:37:26.035Z,95027.40
2019-01-20T04:38:29.472Z,95024.23
2019-01-20T04:39:32.986Z,95027.09
2019-01-20T04:40:36.468Z,95023.69
2019-01-20T04:41:39.973Z,95026.47
2019-01-20T04:42:43.486Z,95022.41
2019-01-20T04:43:46.930Z,95021.95
2019-01-20T04:44:50.372Z,95019.14
2019-01-20T04:45:53.863Z,95023.00
2019-01-20T04:46:57.370Z,95011.50
2019-01-20T04:48:00.815Z,95011.44
2019-01-20T04:49:04.400Z,95019.68
2019-01-20T04:50:13.668Z,95019.84
2019-01-20T04:51:17.121Z,95015.43
2019-01-20T04:52:20.639Z,95011.81
2019-01-20T04:53:24.152Z,95011.42
2019-01-20T04:54:27.668Z,95017.18
2019-01-20T04:55:31.122Z,95014.81
2019-01-20T04:56:34.581Z,95012.56
2019-01-20T04:57:38.330Z,95017.84
2019-01-20T04:58:41.766Z,95016.03
2019-01-20T04:59:45.207Z,95013.45
2019-01-20T05:00:48.670Z,95017.39
2019-01-20T05:01:52.196Z,95017.26
2019-01-20T05:02:55.699Z,95021.04
2019-01-20T05:03:59.134Z,95020.73
2019-01-20T05:05:02.716Z,95020.04
2019-01-20T05:06:06.274Z,95017.54
2019-01-20T05:07:09.706Z,95022.41
2019-01-20T05:08:13.172Z,95018.67
2019-01-20T05:09:16.662Z,95023.30
2019-01-20T05:10:20.196Z,95025.25
2019-01-20T05:11:23.710Z,95022.78
2019-01-20T05:12:27.171Z,95020.94
2019-01-20T05:13:30.608Z,95021.77
2019-01-20T05:14:34.103Z,95023.90
2019-01-20T05:15:37.609Z,95026.02
2019-01-20T05:16:41.174Z,95027.46
2019-01-20T05:17:44.683Z,95022.31
2019-01-20T05:18:48.253Z,95025.97
2019-01-20T05:19:51.700Z,95025.52
2019-01-20T05:20:55.166Z,95030.42
2019-01-20T05:21:58.602Z,95030.73
2019-01-20T05:23:02.039Z,95033.23
2019-01-20T05:24:05.477Z,95035.95
2019-01-20T05:25:10.852Z,95032.53
2019-01-20T05:26:14.390Z,95028.54
2019-01-20T05:27:17.835Z,95033.53
2019-01-20T05:28:21.277Z,95030.27
2019-01-20T05:29:24.725Z,95032.47
2019-01-20T05:30:28.336Z,95033.53
2019-01-20T05:31:31.847Z,95037.33
2019-01-20T05:32:35.287Z,95036.66
2019-01-20T05:33:38.734Z,95034.75
2019-01-20T05:34:42.186Z,95034.23
2019-01-20T05:35:45.647Z,95036.73
2019-01-20T05:36:49.092Z,95036.48
2019-01-20T05:37:52.598Z,95039.75
2019-01-20T05:38:56.037Z,95036.03
2019-01-20T05:39:59.480Z,95035.38
2019-01-20T05:41:02.942Z,95032.56
2019-01-20T05:42:06.450Z,95040.04
2019-01-20T05:43:09.889Z,95034.83
2019-01-20T05:44:13.322Z,95039.89
2019-01-20T05:45:22.052Z,95038.02
2019-01-20T05:46:25.519Z,95031.80
2019-01-20T05:47:29.034Z,95036.10
2019-01-20T05:48:32.893Z,95037.18
2019-01-20T05:49:36.289Z,95036.94
2019-01-20T05:50:39.819Z,95034.30
2019-01-20T05:51:43.242Z,95032.70
2019-01-20T05:52:46.749Z,95036.11
2019-01-20T05:53:50.198Z,95037.33
2019-01-20T05:54:53.721Z,95040.28
2019-01-20T05:55:57.156Z,95034.98
2019-01-20T05:57:00.648Z,95036.34
2019-01-20T05:58:04.137Z,95034.67
2019-01-20T05:59:07.540Z,95036.03
2019-01-20T06:00:14.091Z,95037.63
2019-01-20T06:01:17.547Z,95039.23
2019-01-20T06:02:20.985Z,95036.86
2019-01-20T06:03:24.429Z,95039.51
2019-01-20T06:04:27.858Z,95042.53
2019-01-20T06:05:31.339Z,95039.30
2019-01-20T06:06:34.748Z,95033.16
2019-01-20T06:07:38.270Z,95041.88
2019-01-20T06:08:41.702Z,95042.17
2019-01-20T06:09:45.149Z,95047.32
2019-01-20T06:10:48.620Z,95040.41
2019-01-20T06:11:52.070Z,95043.75
2019-01-20T06:12:55.683Z,95042.40
2019-01-20T06:13:59.121Z,95043.23
2019-01-20T06:15:02.567Z,95044.52
2019-01-20T06:16:06.047Z,95040.73
2019-01-20T06:17:09.518Z,95043.45
2019-01-20T06:18:12.966Z,95042.27
2019-01-20T06:19:16.392Z,95043.45
2019-01-20T06:20:19.965Z,95044.52
2019-01-20T06:21:23.433Z,95039.37
2019-01-20T06:22:26.877Z,95043.90
2019-01-20T06:23:30.323Z,95045.80
2019-01-20T06:24:35.343Z,95045.42
2019-01-20T06:25:39.300Z,95044.45
2019-01-20T06:26:42.955Z,95045.19
2019-01-20T06:27:46.470Z,95039.07
2019-01-20T06:28:49.915Z,95047.02
2019-01-20T06:29:53.455Z,95042.41
2019-01-20T06:30:56.891Z,95039.91
2019-01-20T06:32:00.351Z,95042.23
2019-01-20T06:33:03.857Z,95041.64
2019-01-20T06:34:07.298Z,95039.52
2019-01-20T06:35:10.816Z,95040.88
2019-01-20T06:36:14.257Z,95044.73
2019-01-20T06:37:17.791Z,95051.92
2019-01-20T06:38:21.228Z,95043.38
2019-01-20T06:39:24.668Z,95044.59
2019-01-20T06:40:28.240Z,95052.23
2019-01-20T06:41:31.713Z,95051.78
2019-01-20T06:42:35.144Z,95056.75
2019-01-20T06:43:38.650Z,95054.95
2019-01-20T06:44:42.089Z,95053.73
2019-01-20T06:45:45.612Z,95056.09
2019-01-20T06:46:49.067Z,95061.69
2019-01-20T06:47:52.598Z,95060.70
2019-01-20T06:48:56.078Z,95064.23
2019-01-20T06:49:59.524Z,95070.52
2019-01-20T06:51:02.986Z,95066.36
2019-01-20T06:52:06.509Z,95070.61
2019-01-20T06:53:10.014Z,95059.88
2019-01-20T06:54:13.463Z,95063.66
2019-01-20T06:55:17.081Z,95063.88
2019-01-20T06:56:20.614Z,95067.28
2019-01-20T06:57:24.069Z,95065.16
2019-01-20T06:58:27.505Z,95070.10
2019-01-20T06:59:30.981Z,95063.88
2019-01-20T07:00:34.458Z,95070.17
2019-01-20T07:01:37.898Z,95064.40
2019-01-20T07:02:41.363Z,95072.28
2019-01-20T07:03:44.873Z,95073.27
2019-01-20T07:04:48.467Z,95076.28
2019-01-20T07:05:51.909Z,95081.43
2019-01-20T07:06:55.344Z,95081.15
2019-01-20T07:07:58.912Z,95082.64
2019-01-20T07:09:02.340Z,95085.08
2019-01-20T07:10:08.712Z,95083.03
2019-01-20T07:11:12.243Z,95085.67
2019-01-20T07:12:15.656Z,95080.91
2019-01-20T07:13:19.122Z,95086.89
2019-01-20T07:14:22.555Z,95084.77
2019-01-20T07:15:26.057Z,95084.45
2019-01-20T07:16:29.563Z,95082.48
2019-01-20T07:17:33.002Z,95084.25
2019-01-20T07:18:36.492Z,95081.81
2019-01-20T07:19:39.939Z,95082.79
2019-01-20T07:20:43.520Z,95082.20
2019-01-20T07:21:46.953Z,95085.53
2019-01-20T07:22:50.635Z,95088.31
2019-01-20T07:23:54.151Z,95093.63
2019-01-20T07:24:57.595Z,95091.72
2019-01-20T07:26:01.039Z,95092.63
2019-01-20T07:27:04.844Z,95085.98
2019-01-20T07:28:08.302Z,95091.34
2019-01-20T07:29:11.809Z,95093.08
2019-01-20T07:30:22.299Z,95094.29
2019-01-20T07:31:25.803Z,95095.58
2019-01-20T07:32:29.318Z,95099.75
2019-01-20T07:33:32.782Z,95097.03
2019-01-20T07:34:36.382Z,95093.32
2019-01-20T07:35:39.908Z,95098.08
2019-01-20T07:36:43.479Z,95098.92
2019-01-20T07:37:47.191Z,95101.70
2019-01-20T07:38:50.639Z,95103.61
2019-01-20T07:39:54.250Z,95106.77
2019-01-20T07:40:57.696Z,95103.37
2019-01-20T07:42:01.213Z,95098.39
2019-01-20T07:43:04.798Z,95108.23
2019-01-20T07:44:08.236Z,95105.28
2019-01-20T07:45:13.223Z,95102.64
2019-01-20T07:46:16.667Z,95105.88
2019-01-20T07:47:20.102Z,95109.34
2019-01-20T07:48:23.565Z,95110.49
2019-01-20T07:49:27.069Z,95110.11
2019-01-20T07:50:30.742Z,95112.61
2019-01-20T07:51:34.197Z,95113.66
2019-01-20T07:52:37.631Z,95115.19
2019-01-20T07:53:41.100Z,95116.72
2019-01-20T07:54:44.615Z,95118.73
2019-01-20T07:55:48.056Z,95116.86
2019-01-20T07:56:51.608Z,95111.39
2019-01-20T07:57:55.060Z,95117.45
2019-01-20T07:58:58.590Z,95115.18
2019-01-20T08:00:02.025Z,95116.91
2019-01-20T08:01:05.533Z,95113.50
2019-01-20T08:02:08.962Z,95120.84
2019-01-20T08:03:12.452Z,95118.82
2019-01-20T08:04:15.893Z,95120.39
2019-01-20T08:05:19.758Z,95118.73
2019-01-20T08:06:23.210Z,95121.54
2019-01-20T08:07:26.653Z,95116.00
2019-01-20T08:08:30.121Z,95119.80
2019-01-20T08:09:33.563Z,95117.91
2019-01-20T08:10:37.037Z,95122.05
2019-01-20T08:11:40.850Z,95118.34
2019-01-20T08:12:44.361Z,95120.16
2019-01-20T08:13:47.844Z,95130.70
2019-01-20T08:14:51.414Z,95129.86
2019-01-20T08:15:54.857Z,95123.61
2019-01-20T08:16:58.360Z,95130.42
2019-01-20T08:18:01.845Z,95128.67
2019-01-20T08:19:05.358Z,95124.57
2019-01-20T08:20:14.180Z,95126.97
2019-01-20T08:21:17.611Z,95128.49
2019-01-20T08:22:21.123Z,95134.09
2019-01-20T08:23:24.575Z,95136.59
2019-01-20T08:24:28.007Z,95135.22
2019-01-20T08:25:31.506Z,95133.09
2019-01-20T08:26:34.938Z,95137.17
2019-01-20T08:27:38.445Z,95137.77
2019-01-20T08:28:41.907Z,95141.61
2019-01-20T08:29:45.343Z,95138.63
2019-01-20T08:30:48.860Z,95144.68
2019-01-20T08:31:52.306Z,95143.63
2019-01-20T08:32:56.301Z,95141.50
2019-01-20T08:33:59.805Z,95141.54
2019-01-20T08:35:03.700Z,95145.45
2019-01-20T08:36:07.207Z,95145.69
2019-01-20T08:37:10.641Z,95146.13
2019-01-20T08:38:14.151Z,95145.05
2019-01-20T08:39:17.603Z,95146.94
2019-01-20T08:40:26.555Z,95145.33
2019-01-20T08:41:29.983Z,95144.08
2019-01-20T08:42:33.533Z,95152.09
2019-01-20T08:43:37.430Z,95150.89
2019-01-20T08:44:40.872Z,95146.28
2019-01-20T08:45:53.138Z,95147.17
2019-01-20T08:46:56.644Z,95153.42
2019-01-20T08:48:03.209Z,95149.74
2019-01-20T08:49:06.809Z,95153.88
2019-01-20T08:50:11.081Z,95156.17
2019-01-20T08:51:14.588Z,95157.27
2019-01-20T08:52:18.039Z,95154.89
2019-01-20T08:53:21.552Z,95157.79
2019-01-20T08:54:25.006Z,95155.97
2019-01-20T08:55:28.424Z,95160.81
2019-01-20T08:56:31.931Z,95157.30
2019-01-20T08:57:35.437Z,95162.05
2019-01-20T08:58:38.972Z,95160.78
2019-01-20T08:59:42.412Z,95165.33
2019-01-20T09:00:45.925Z,95163.66
2019-01-20T09:01:49.359Z,95163.13
2019-01-20T09:02:52.869Z,95169.29
2019-01-20T09:03:56.510Z,95168.00
2019-01-20T09:05:00.016Z,95174.66
2019-01-20T09:06:03.523Z,95168.87
2019-01-20T09:07:07.290Z,95168.91
2019-01-20T09:08:12.463Z,95169.88
2019-01-20T09:09:16.101Z,95167.44
2019-01-20T09:10:22.537Z,95175.73
2019-01-20T09:11:26.130Z,95175.73
2019-01-20T09:12:30.236Z,95176.17
2019-01-20T09:13:39.571Z,95168.77
2019-01-20T09:14:39.248Z,95171.70
2019-01-20T09:15:42.844Z,95173.42
2019-01-20T09:16:46.287Z,95175.50
2019-01-20T09:17:49.861Z,95174.23
2019-01-20T09:18:53.376Z,95170.39
2019-01-20T09:19:56.931Z,95174.28
2019-01-20T09:21:00.465Z,95175.59
2019-01-20T09:22:04.187Z,95172.15
2019-01-20T09:23:07.688Z,95176.70
2019-01-20T09:24:11.192Z,95178.33
2019-01-20T09:25:15.402Z,95175.51
2019-01-20T09:26:19.032Z,95171.00
2019-01-20T09:27:22.526Z,95182.64
2019-01-20T09:28:25.971Z,95182.65
2019-01-20T09:29:29.409Z,95182.89
2019-01-20T09:30:33.041Z,95188.08
2019-01-20T09:31:36.563Z,95184.10
2019-01-20T09:32:40.293Z,95191.00
2019-01-20T09:33:44.042Z,95185.20
2019-01-20T09:34:47.475Z,95190.80
2019-01-20T09:35:50.959Z,95189.94
2019-01-20T09:36:54.471Z,95192.96
2019-01-20T09:37:57.911Z,95187.25
2019-01-20T09:39:01.413Z,95192.53
2019-01-20T09:40:07.172Z,95191.23
2019-01-20T09:41:10.623Z,95196.41
2019-01-20T09:42:14.082Z,95193.63
2019-01-20T09:43:17.565Z,95195.25
2019-01-20T09:44:20.996Z,95194.72
2019-01-20T09:45:30.139Z,95194.05
2019-01-20T09:46:33.648Z,95192.98
2019-01-20T09:47:37.168Z,95190.83
2019-01-20T09:48:40.683Z,95191.92
2019-01-20T09:49:44.117Z,95192.98
2019-01-20T09:50:47.634Z,95192.23
2019-01-20T09:51:51.476Z,95188.58
2019-01-20T09:52:54.971Z,95189.87
2019-01-20T09:53:58.461Z,95190.30
2019-01-20T09:55:01.895Z,95189.97
2019-01-20T09:56:05.666Z,95190.62
2019-01-20T09:57:09.150Z,95190.74
2019-01-20T09:58:12.826Z,95191.27
2019-01-20T09:59:16.331Z,95188.05
2019-01-20T10:00:22.407Z,95195.48
2019-01-20T10:01:25.860Z,95197.11
2019-01-20T10:02:29.369Z,95196.11
2019-01-20T10:03:32.962Z,95189.88
2019-01-20T10:04:36.399Z,95194.19
2019-01-20T10:05:39.987Z,95198.17
2019-01-20T10:06:43.662Z,95194.73
2019-01-20T10:07:47.233Z,95192.23
2019-01-20T10:08:50.680Z,95191.05
2019-01-20T10:09:54.157Z,95195.81
2019-01-20T10:10:57.654Z,95182.63
2019-01-20T10:12:01.231Z,95182.63
2019-01-20T10:13:04.753Z,95185.88
2019-01-20T10:14:08.205Z,95182.41
2019-01-20T10:15:14.333Z,95193.00
2019-01-20T10:16:17.896Z,95193.43
2019-01-20T10:17:21.377Z,95201.30
2019-01-20T10:18:24.839Z,95196.52
2019-01-20T10:19:28.408Z,95196.64
2019-01-20T10:20:36.635Z,95194.06
2019-01-20T10:21:40.179Z,95194.48
2019-01-20T10:22:43.690Z,95193.30
2019-01-20T10:23:47.131Z,95195.67
2019-01-20T10:24:50.689Z,95195.12
2019-01-20T10:25:54.195Z,95195.32
2019-01-20T10:26:57.646Z,95195.85
2019-01-20T10:28:01.150Z,95194.45
2019-01-20T10:29:04.724Z,95190.38
2019-01-20T10:30:13.899Z,95193.72
2019-01-20T10:31:17.405Z,95193.61
2019-01-20T10:32:20.940Z,95195.12
2019-01-20T10:33:24.373Z,95189.70
2019-01-20T10:34:27.802Z,95193.02
2019-01-20T10:35:32.944Z,95192.16
2019-01-20T10:36:36.382Z,95188.72
2019-01-20T10:37:40.002Z,95192.47
2019-01-20T10:38:43.436Z,95189.66
2019-01-20T10:39:46.958Z,95191.37
2019-01-20T10:40:50.568Z,95189.86
2019-01-20T10:41:54.153Z,95195.89
2019-01-20T10:42:57.575Z,95193.61
2019-01-20T10:44:02.271Z,95184.77
2019-01-20T10:45:08.859Z,95187.16
2019-01-20T10:46:12.573Z,95185.32
2019-01-20T10:47:16.118Z,95188.76
2019-01-20T10:48:19.718Z,95189.86
2019-01-20T10:49:23.146Z,95189.97
2019-01-20T10:50:26.733Z,95189.57
2019-01-20T10:51:30.176Z,95189.23
2019-01-20T10:52:33.708Z,95192.25
2019-01-20T10:53:37.213Z,95195.06
2019-01-20T10:54:40.791Z,95189.01
2019-01-20T10:55:44.297Z,95187.91
2019-01-20T10:56:52.214Z,95190.05
2019-01-20T10:57:55.646Z,95186.17
2019-01-20T10:58:59.242Z,95183.69
2019-01-20T11:00:02.821Z,95191.55
2019-01-20T11:01:06.318Z,95188.73
2019-01-20T11:02:09.936Z,95192.06
2019-01-20T11:03:13.505Z,95189.77
2019-01-20T11:04:17.047Z,95189.74
2019-01-20T11:05:25.031Z,95192.30
2019-01-20T11:06:25.934Z,95186.05
2019-01-20T11:07:29.396Z,95188.41
2019-01-20T11:08:32.843Z,95185.78
2019-01-20T11:09:36.287Z,95185.55
2019-01-20T11:10:40.198Z,95189.97
2019-01-20T11:11:43.752Z,95186.39
2019-01-20T11:12:47.426Z,95188.38
2019-01-20T11:13:51.043Z,95191.05
2019-01-20T11:14:54.580Z,95189.30
2019-01-20T11:15:58.039Z,95187.91
2019-01-20T11:17:01.643Z,95188.34
2019-01-20T11:18:05.343Z,95191.77
2019-01-20T11:19:08.943Z,95191.00
2019-01-20T11:20:18.163Z,95190.73
2019-01-20T11:21:21.731Z,95194.63
2019-01-20T11:22:25.273Z,95199.92
2019-01-20T11:23:32.873Z,95197.10
2019-01-20T11:24:36.053Z,95202.81
2019-01-20T11:25:42.279Z,95202.67
2019-01-20T11:26:45.842Z,95207.20
2019-01-20T11:27:49.419Z,95206.13
2019-01-20T11:28:52.942Z,95208.39
2019-01-20T11:29:56.449Z,95203.08
2019-01-20T11:31:00.161Z,95203.38
2019-01-20T11:32:03.747Z,95207.80
2019-01-20T11:33:07.466Z,95200.44
2019-01-20T11:34:11.047Z,95206.58
2019-01-20T11:35:19.292Z,95205.55
2019-01-20T11:36:22.946Z,95206.45
2019-01-20T11:37:26.469Z,95202.36
2019-01-20T11:38:29.984Z,95205.25
2019-01-20T11:39:33.560Z,95205.45
2019-01-20T11:40:37.067Z,95204.91
2019-01-20T11:41:40.505Z,95200.25
2019-01-20T11:42:44.108Z,95200.14
2019-01-20T11:43:47.704Z,95203.08
2019-01-20T11:44:51.157Z,95200.59
2019-01-20T11:45:54.682Z,95199.64
2019-01-20T11:46:58.199Z,95206.75
2019-01-20T11:48:01.783Z,95202.44
2019-01-20T11:49:05.433Z,95203.31
2019-01-20T11:50:12.001Z,95202.09
2019-01-20T11:51:15.495Z,95203.84
2019-01-20T11:52:19.117Z,95202.73
2019-01-20T11:53:22.815Z,95203.69
2019-01-20T11:54:26.252Z,95204.11
2019-01-20T11:55:29.901Z,95201.31
2019-01-20T11:56:33.485Z,95203.61
2019-01-20T11:57:37.025Z,95203.61
2019-01-20T11:58:40.909Z,95193.58
2019-01-20T11:59:44.403Z,95200.06
2019-01-20T12:00:47.920Z,95204.49
2019-01-20T12:01:51.354Z,95206.20
2019-01-20T12:02:54.878Z,95200.48
2019-01-20T12:03:58.307Z,95199.06
2019-01-20T12:05:01.841Z,95204.03
2019-01-20T12:06:05.625Z,95203.61
2019-01-20T12:07:09.319Z,95203.31
2019-01-20T12:08:13.058Z,95202.89
2019-01-20T12:09:16.592Z,95206.79
2019-01-20T12:10:20.275Z,95205.79
2019-01-20T12:11:23.789Z,95206.84
2019-01-20T12:12:27.828Z,95200.90
2019-01-20T12:13:31.669Z,95205.16
2019-01-20T12:14:35.335Z,95198.25
2019-01-20T12:15:39.190Z,95198.25
2019-01-20T12:16:42.694Z,95209.36
2019-01-20T12:17:46.289Z,95207.17
2019-01-20T12:18:50.497Z,95210.88
2019-01-20T12:19:54.087Z,95203.81
2019-01-20T12:20:57.622Z,95207.28
2019-01-20T12:22:01.107Z,95206.17
2019-01-20T12:23:05.415Z,95201.69
2019-01-20T12:24:08.944Z,95199.16
2019-01-20T12:25:17.852Z,95199.34
2019-01-20T12:26:21.433Z,95202.16
2019-01-20T12:27:24.897Z,95197.86
2019-01-20T12:28:28.327Z,95202.45